createdAt,value
2023-03-01T00:03:17.748Z,-1.90
2023-03-01T00:08:20.513Z,-1.93
2023-03-01T00:13:23.178Z,-1.86
2023-03-01T00:18:26.240Z,-1.84
2023-03-01T00:23:32.583Z,-1.89
2023-03-01T00:28:35.770Z,-1.79
2023-03-01T00:33:38.696Z,-1.80
2023-03-01T00:38:43.883Z,-1.94
2023-03-01T00:43:49.321Z,-1.92
2023-03-01T00:48:52.047Z,-1.81
2023-03-01T00:53:56.300Z,-1.88
2023-03-01T00:58:59.025Z,-1.78
2023-03-01T01:04:06.491Z,-1.78
2023-03-01T01:09:10.536Z,-1.78
2023-03-01T01:14:14.297Z,-1.81
2023-03-01T01:19:18.506Z,-1.79
2023-03-01T01:24:21.222Z,-1.80
2023-03-01T01:29:24.171Z,-1.74
2023-03-01T01:34:26.908Z,-1.70
2023-03-01T01:39:30.279Z,-1.72
2023-03-01T01:44:35.408Z,-1.64
2023-03-01T01:50:04.769Z,-1.70
2023-03-01T01:55:13.476Z,-1.59
2023-03-01T02:00:22.159Z,-1.55
2023-03-01T02:05:53.301Z,-1.54
2023-03-01T02:10:58.157Z,-1.52
2023-03-01T02:16:01.815Z,-1.43
2023-03-01T02:21:38.780Z,-1.49
2023-03-01T02:26:50.475Z,-1.26
2023-03-01T02:31:54.734Z,-1.23
2023-03-01T02:37:06.961Z,-1.15
2023-03-01T02:42:13.560Z,-1.12
2023-03-01T02:47:16.249Z,-1.16
2023-03-01T02:52:32.333Z,-1.06
2023-03-01T02:57:37.250Z,-1.16
2023-03-01T03:02:40.109Z,-0.97
2023-03-01T03:07:51.815Z,-0.89
2023-03-01T03:13:00.604Z,-0.85
2023-03-01T03:18:06.619Z,-0.87
2023-03-01T03:23:09.392Z,-0.94
2023-03-01T03:28:12.092Z,-0.94
2023-03-01T03:33:15.380Z,-0.80
2023-03-01T03:38:21.040Z,-0.75
2023-03-01T03:43:24.596Z,-0.63
2023-03-01T03:48:28.238Z,-0.48
2023-03-01T03:53:30.843Z,-0.28
2023-03-01T03:58:33.579Z,-0.25
2023-03-01T04:03:36.449Z,-0.29
2023-03-01T04:08:39.448Z,-0.28
2023-03-01T04:13:42.168Z,-0.06
2023-03-01T04:18:48.276Z,0.09
2023-03-01T04:23:53.849Z,0.21
2023-03-01T04:28:56.737Z,0.31
2023-03-01T04:33:59.461Z,0.29
2023-03-01T04:39:13.614Z,0.28
2023-03-01T04:44:16.389Z,0.45
2023-03-01T04:49:19.078Z,0.49
2023-03-01T04:54:21.765Z,0.26
2023-03-01T04:59:24.733Z,0.07
2023-03-01T05:04:27.589Z,-0.06
2023-03-01T05:09:34.817Z,0.08
2023-03-01T05:14:41.505Z,0.15
2023-03-01T05:19:44.209Z,0.18
2023-03-01T05:24:48.191Z,0.04
2023-03-01T05:29:51.019Z,0.20
2023-03-01T05:34:53.732Z,0.32
2023-03-01T05:39:56.425Z,0.35
2023-03-01T05:44:59.156Z,0.28
2023-03-01T05:50:01.873Z,0.12
2023-03-01T05:55:05.868Z,0.17
2023-03-01T06:00:10.203Z,-0.15
2023-03-01T06:05:16.456Z,0.12
2023-03-01T06:10:21.279Z,-0.03
2023-03-01T06:15:24.719Z,-0.14
2023-03-01T06:20:29.667Z,-0.02
2023-03-01T06:25:32.465Z,0.08
2023-03-01T06:30:35.321Z,0.22
2023-03-01T06:35:38.101Z,0.27
2023-03-01T06:40:40.844Z,0.23
2023-03-01T06:45:44.476Z,0.20
2023-03-01T06:50:47.418Z,0.33
2023-03-01T06:55:56.051Z,0.46
2023-03-01T07:00:58.664Z,0.58
2023-03-01T07:06:01.471Z,0.46
2023-03-01T07:11:05.216Z,0.59
2023-03-01T07:16:08.632Z,0.81
2023-03-01T07:21:14.711Z,0.90
2023-03-01T07:26:17.398Z,0.95
2023-03-01T07:31:20.151Z,1.10
2023-03-01T07:36:23.081Z,1.20
2023-03-01T07:41:26.260Z,1.01
2023-03-01T07:46:29.306Z,1.01
2023-03-01T07:51:32.393Z,0.96
2023-03-01T07:56:35.674Z,0.92
2023-03-01T08:01:38.499Z,0.93
2023-03-01T08:06:41.230Z,0.73
2023-03-01T08:11:44.180Z,0.64
2023-03-01T08:16:46.899Z,0.47
2023-03-01T08:21:49.609Z,0.40
2023-03-01T08:26:52.530Z,0.50
2023-03-01T08:31:55.408Z,0.30
2023-03-01T08:36:58.179Z,0.20
2023-03-01T08:42:00.912Z,-0.21
2023-03-01T08:47:04.781Z,-0.29
2023-03-01T08:52:07.561Z,-0.03
2023-03-01T08:57:11.085Z,0.15
2023-03-01T09:02:16.101Z,0.36
2023-03-01T09:07:18.902Z,0.80
2023-03-01T09:12:21.777Z,0.95
2023-03-01T09:17:24.564Z,0.66
2023-03-01T09:22:27.603Z,0.42
2023-03-01T09:27:30.425Z,0.36
2023-03-01T09:32:33.307Z,0.40
2023-03-01T09:37:36.986Z,0.43
2023-03-01T09:42:50.240Z,0.30
2023-03-01T09:47:53.032Z,0.25
2023-03-01T09:53:15.914Z,0.02
2023-03-01T09:58:33.352Z,0.26
2023-03-01T10:04:11.372Z,0.13
2023-03-01T10:09:16.847Z,-0.02
2023-03-01T10:14:38.751Z,-0.07
2023-03-01T10:19:46.389Z,-0.23
2023-03-01T10:24:50.160Z,-0.54
2023-03-01T10:30:14.669Z,-0.50
2023-03-01T10:35:31.497Z,-0.58
2023-03-01T10:40:36.100Z,-0.67
2023-03-01T10:45:40.778Z,-0.80
2023-03-01T10:50:46.185Z,-0.89
2023-03-01T10:55:49.138Z,-0.90
2023-03-01T11:00:54.159Z,-0.95
2023-03-01T11:05:58.437Z,-0.96
2023-03-01T11:11:07.370Z,-0.98
2023-03-01T11:16:13.904Z,-1.17
2023-03-01T11:21:19.792Z,-1.04
2023-03-01T11:26:22.789Z,-1.03
2023-03-01T11:31:26.174Z,-1.11
2023-03-01T11:36:41.087Z,-1.12
2023-03-01T11:41:43.854Z,-1.17
2023-03-01T11:47:12.746Z,-1.24
2023-03-01T11:52:34.202Z,-1.25
2023-03-01T11:57:52.207Z,-1.23
2023-03-01T12:03:19.585Z,-1.27
2023-03-01T12:08:34.059Z,-1.42
2023-03-01T12:13:50.006Z,-1.14
2023-03-01T12:19:07.837Z,-1.08
2023-03-01T12:24:45.085Z,-1.15
2023-03-01T12:30:11.582Z,-1.27
2023-03-01T12:35:56.293Z,-1.22
2023-03-01T12:41:14.980Z,-1.16
2023-03-01T12:46:32.869Z,-1.15
2023-03-01T12:51:37.261Z,-1.15
2023-03-01T12:56:42.803Z,-1.11
2023-03-01T13:01:58.914Z,-1.12
2023-03-01T13:07:05.650Z,-1.08
2023-03-01T13:12:50.712Z,-1.05
2023-03-01T13:18:04.914Z,-1.12
2023-03-01T13:23:15.604Z,-0.99
2023-03-01T13:28:43.238Z,-0.97
2023-03-01T13:33:48.397Z,-0.95
2023-03-01T13:38:56.393Z,-0.93
2023-03-01T13:43:59.406Z,-0.89
2023-03-01T13:49:02.283Z,-0.88
2023-03-01T13:59:31.531Z,-0.85
2023-03-01T14:04:37.270Z,-0.85
2023-03-01T14:09:45.749Z,-0.93
2023-03-01T14:15:00.927Z,-0.83
2023-03-01T14:20:20.225Z,-0.76
2023-03-01T14:25:31.579Z,-0.74
2023-03-01T14:30:39.591Z,-0.87
2023-03-01T14:35:43.129Z,-0.70
2023-03-01T14:40:46.001Z,-0.69
2023-03-01T14:45:50.404Z,-0.76
2023-03-01T14:50:53.204Z,-0.71
2023-03-01T14:55:58.733Z,-0.69
2023-03-01T15:01:04.079Z,-0.64
2023-03-01T15:06:08.185Z,-0.63
2023-03-01T15:11:32.458Z,-0.58
2023-03-01T15:21:52.915Z,-0.56
2023-03-01T15:26:59.061Z,-0.54
2023-03-01T15:32:23.941Z,-0.49
2023-03-01T15:37:45.560Z,-0.55
2023-03-01T15:42:49.730Z,-0.61
2023-03-01T15:47:55.412Z,-0.59
2023-03-01T15:53:00.124Z,-0.57
2023-03-01T15:58:20.509Z,-0.57
2023-03-01T16:03:23.735Z,-0.60
2023-03-01T16:08:26.450Z,-0.55
2023-03-01T16:13:29.548Z,-0.69
2023-03-01T16:18:32.320Z,-0.55
2023-03-01T16:23:35.070Z,-0.52
2023-03-01T16:28:37.959Z,-0.68
2023-03-01T16:33:40.814Z,-0.55
2023-03-01T16:38:43.576Z,-0.52
2023-03-01T16:43:48.047Z,-0.51
2023-03-01T16:48:51.508Z,-0.50
2023-03-01T16:53:54.486Z,-0.52
2023-03-01T16:58:57.340Z,-0.50
2023-03-01T17:04:01.059Z,-0.54
2023-03-01T17:09:03.983Z,-0.49
2023-03-01T17:14:06.693Z,-0.56
2023-03-01T17:19:09.484Z,-0.64
2023-03-01T17:24:12.984Z,-0.55
2023-03-01T17:29:18.723Z,-0.50
2023-03-01T17:34:21.752Z,-0.58
2023-03-01T17:39:32.277Z,-0.58
2023-03-01T17:44:35.516Z,-0.57
2023-03-01T17:49:38.409Z,-0.56
2023-03-01T17:54:41.158Z,-0.58
2023-03-01T17:59:44.047Z,-0.60
2023-03-01T18:04:47.285Z,-0.65
2023-03-01T18:09:49.933Z,-0.72
2023-03-01T18:14:55.502Z,-0.66
2023-03-01T18:19:59.280Z,-0.66
2023-03-01T18:25:01.974Z,-0.76
2023-03-01T18:30:07.298Z,-0.67
2023-03-01T18:35:10.105Z,-0.70
2023-03-01T18:40:14.328Z,-0.67
2023-03-01T18:45:18.208Z,-0.65
2023-03-01T18:50:21.247Z,-0.61
2023-03-01T18:55:24.194Z,-0.58
2023-03-01T19:00:27.168Z,-0.56
2023-03-01T19:05:30.340Z,-0.52
2023-03-01T19:10:33.246Z,-0.49
2023-03-01T19:15:36.185Z,-0.47
2023-03-01T19:20:39.618Z,-0.39
2023-03-01T19:25:43.105Z,-0.36
2023-03-01T19:30:45.903Z,-0.35
2023-03-01T19:35:48.772Z,-0.32
2023-03-01T19:40:52.067Z,-0.35
2023-03-01T19:45:55.966Z,-0.37
2023-03-01T19:50:58.937Z,-0.42
2023-03-01T19:56:02.457Z,-0.45
2023-03-01T20:01:05.315Z,-0.42
2023-03-01T20:06:11.300Z,-0.33
2023-03-01T20:11:16.191Z,-0.52
2023-03-01T20:16:20.550Z,-0.26
2023-03-01T20:21:24.825Z,-0.28
2023-03-01T20:26:28.888Z,-0.46
2023-03-01T20:31:31.661Z,-0.22
2023-03-01T20:36:35.277Z,-0.19
2023-03-01T20:41:39.268Z,-0.18
2023-03-01T20:46:41.930Z,-0.16
2023-03-01T20:51:45.138Z,-0.22
2023-03-01T20:56:48.219Z,-0.18
2023-03-01T21:01:51.441Z,-0.19
2023-03-01T21:06:54.182Z,-0.28
2023-03-01T21:11:56.818Z,-0.16
2023-03-01T21:16:59.518Z,-0.12
2023-03-01T21:22:02.304Z,-0.08
2023-03-01T21:27:06.993Z,-0.04
2023-03-01T21:32:11.009Z,-0.06
2023-03-01T21:37:13.827Z,-0.29
2023-03-01T21:42:16.637Z,-0.35
2023-03-01T21:47:19.411Z,-0.34
2023-03-01T21:52:22.202Z,-0.59
2023-03-01T21:57:24.956Z,-0.90
2023-03-01T22:02:27.728Z,-0.99
2023-03-01T22:07:31.246Z,-1.13
2023-03-01T22:12:34.478Z,-1.27
2023-03-01T22:17:37.203Z,-1.36
2023-03-01T22:22:39.898Z,-1.37
2023-03-01T22:27:42.578Z,-1.36
2023-03-01T22:32:46.184Z,-1.27
2023-03-01T22:37:49.295Z,-1.37
2023-03-01T22:42:52.129Z,-1.25
2023-03-01T22:47:55.006Z,-0.95
2023-03-01T22:52:57.806Z,-0.71
2023-03-01T22:58:00.457Z,-0.61
2023-03-01T23:03:03.376Z,-0.61
2023-03-01T23:08:06.206Z,-0.66
2023-03-01T23:13:09.001Z,-0.50
2023-03-01T23:18:11.956Z,-0.44
2023-03-01T23:23:14.902Z,-0.35
2023-03-01T23:28:17.558Z,-0.31
2023-03-01T23:33:20.322Z,-0.25
2023-03-01T23:38:23.126Z,-0.27
2023-03-01T23:43:25.896Z,-0.24
2023-03-01T23:48:28.680Z,-0.24
2023-03-01T23:53:31.416Z,-0.28
2023-03-01T23:58:34.143Z,-0.26
